Airfield :
LOGIN :

Register | Disclaimer

   EN    FR    IT 

 










Legend :    VFR   Marginal VFR   IFR   Intensive IFR   Very Intensive IFR
Visi :
Ceiling :
>= 8 km
>= 3000ft
5 to 8 km
1000 to 3000 ft
1500m to 5 km
500 to 1000 ft
800 to 1500m
200 to 500 ft
< 800m
< 200 ft
Symbols :   Thunderstorms  Fog  Heavy snow  Heavy precipitations  Wind > 20 kt
SIGMETs :     Misc.  Thunderstorms  Icing  Turbulence  Mountain Waves  Volcanic Ashes






- Airport Elevation : 202 ft
- IATA code : SQZ


EGXP - RAF Scampton

CURRENT METAR :
  • 241050Z 27006KT 9999 BKN023 08/07 Q1021 RMK WHT

EXPIRED METARs :
  • 240950Z 26004KT 9999 FEW018 BKN023 07/06 Q1022 RMK WHT
  • 240850Z 25003KT 9999 OVC022 06/06 Q1021 RMK WHT

TAF TAF EGXP
Valid from the 24 at 12:00 until the 24 at 18:00 UTC


241053Z 2412/2418 26007KT 9999 FEW018 BKN025
TEMPO 2412/2418 SCT018
PROB40
TEMPO 2412/2416 SCT008
BECMG 2416/2418 5000 BR



MET'MAP, your aeronautical weather chart ! - Copyright ORBIFLY December 2007 - Disclaimer

ORBIFLY MET'MAP TEAM :

Programming & Development : Alexandra Zaïnal
Concept & original design : Baudouin d'Aumeries
Assistance for programming : Marc-Olivier Méhu
Technical & hardware support : Manuel Goepfert

Contact : metmap@orbifly.com




SOURCES & CREDITS :

   NOAA